sensor_id;sensor_type;location;lat;lon;timestamp;pressure;altitude;pressure_sealevel;temperature;humidity
11099;BME280;12223;42.650;23.364;2024-02-26T00:01:15;94351.94;;;6.22;79.86
11099;BME280;12223;42.650;23.364;2024-02-26T00:03:41;94359.91;;;6.32;79.09
11099;BME280;12223;42.650;23.364;2024-02-26T00:06:07;94358.53;;;6.18;79.83
11099;BME280;12223;42.650;23.364;2024-02-26T00:08:34;94356.09;;;6.23;80.92
11099;BME280;12223;42.650;23.364;2024-02-26T00:10:59;94342.78;;;6.61;77.95
11099;BME280;12223;42.650;23.364;2024-02-26T00:13:24;94338.97;;;6.63;78.32
11099;BME280;12223;42.650;23.364;2024-02-26T00:15:50;94351.16;;;6.68;77.92
11099;BME280;12223;42.650;23.364;2024-02-26T00:18:15;94352.72;;;6.57;78.37
11099;BME280;12223;42.650;23.364;2024-02-26T00:20:41;94357.09;;;6.45;80.18
11099;BME280;12223;42.650;23.364;2024-02-26T00:23:08;94352.75;;;6.46;80.08
11099;BME280;12223;42.650;23.364;2024-02-26T00:25:33;94346.94;;;6.50;79.14
11099;BME280;12223;42.650;23.364;2024-02-26T00:27:59;94343.03;;;6.48;79.34
11099;BME280;12223;42.650;23.364;2024-02-26T00:30:24;94356.31;;;6.56;79.12
11099;BME280;12223;42.650;23.364;2024-02-26T00:32:50;94345.63;;;6.88;78.22
11099;BME280;12223;42.650;23.364;2024-02-26T00:35:15;94339.81;;;6.92;77.69
11099;BME280;12223;42.650;23.364;2024-02-26T00:37:44;94328.94;;;7.02;78.56
11099;BME280;12223;42.650;23.364;2024-02-26T00:40:10;94338.97;;;6.75;77.72
11099;BME280;12223;42.650;23.364;2024-02-26T00:42:36;94334.47;;;6.82;77.73
11099;BME280;12223;42.650;23.364;2024-02-26T00:45:01;94333.38;;;6.78;78.34
11099;BME280;12223;42.650;23.364;2024-02-26T00:47:26;94318.91;;;6.60;79.42
11099;BME280;12223;42.650;23.364;2024-02-26T00:49:52;94321.66;;;6.82;77.05
11099;BME280;12223;42.650;23.364;2024-02-26T00:52:17;94328.16;;;6.61;77.67
11099;BME280;12223;42.650;23.364;2024-02-26T00:54:43;94324.63;;;6.39;79.79
11099;BME280;12223;42.650;23.364;2024-02-26T00:57:09;94317.38;;;6.36;79.78
11099;BME280;12223;42.650;23.364;2024-02-26T00:59:36;94311.66;;;6.57;79.64
11099;BME280;12223;42.650;23.364;2024-02-26T01:02:02;94313.00;;;6.48;79.94
11099;BME280;12223;42.650;23.364;2024-02-26T01:04:27;94310.91;;;6.33;80.97
11099;BME280;12223;42.650;23.364;2024-02-26T01:06:53;94307.88;;;6.48;81.38
11099;BME280;12223;42.650;23.364;2024-02-26T01:09:19;94309.28;;;6.67;80.00
11099;BME280;12223;42.650;23.364;2024-02-26T01:11:45;94309.72;;;6.76;80.01
11099;BME280;12223;42.650;23.364;2024-02-26T01:14:12;94298.88;;;6.74;80.50
11099;BME280;12223;42.650;23.364;2024-02-26T01:16:37;94310.22;;;6.90;80.15
11099;BME280;12223;42.650;23.364;2024-02-26T01:19:03;94311.28;;;6.77;81.34
11099;BME280;12223;42.650;23.364;2024-02-26T01:21:28;94306.78;;;6.84;81.24
11099;BME280;12223;42.650;23.364;2024-02-26T01:23:56;94297.13;;;7.03;79.99
11099;BME280;12223;42.650;23.364;2024-02-26T01:26:22;94296.03;;;7.15;78.69
11099;BME280;12223;42.650;23.364;2024-02-26T01:28:47;94296.72;;;6.94;79.34
11099;BME280;12223;42.650;23.364;2024-02-26T01:31:15;94305.06;;;6.90;79.97
11099;BME280;12223;42.650;23.364;2024-02-26T01:33:41;94295.03;;;7.16;79.09
11099;BME280;12223;42.650;23.364;2024-02-26T01:36:07;94300.78;;;7.07;79.93
11099;BME280;12223;42.650;23.364;2024-02-26T01:38:33;94297.06;;;6.86;80.08
11099;BME280;12223;42.650;23.364;2024-02-26T01:40:59;94301.06;;;6.94;80.10
11099;BME280;12223;42.650;23.364;2024-02-26T01:43:24;94302.06;;;6.93;80.24
11099;BME280;12223;42.650;23.364;2024-02-26T01:45:50;94294.16;;;6.94;80.96
11099;BME280;12223;42.650;23.364;2024-02-26T01:48:15;94291.47;;;7.17;79.70
11099;BME280;12223;42.650;23.364;2024-02-26T01:50:41;94292.94;;;7.13;79.63
11099;BME280;12223;42.650;23.364;2024-02-26T01:53:07;94282.69;;;7.47;78.40
11099;BME280;12223;42.650;23.364;2024-02-26T01:55:34;94277.81;;;7.45;76.83
11099;BME280;12223;42.650;23.364;2024-02-26T01:58:00;94279.34;;;7.46;77.72
11099;BME280;12223;42.650;23.364;2024-02-26T02:00:30;94288.53;;;7.42;78.14
11099;BME280;12223;42.650;23.364;2024-02-26T02:02:55;94289.53;;;7.24;78.27
11099;BME280;12223;42.650;23.364;2024-02-26T02:05:22;94289.94;;;7.33;78.59
11099;BME280;12223;42.650;23.364;2024-02-26T02:07:49;94282.63;;;7.25;79.13
11099;BME280;12223;42.650;23.364;2024-02-26T02:10:19;94283.97;;;7.16;79.11
11099;BME280;12223;42.650;23.364;2024-02-26T02:12:48;94285.78;;;7.32;78.40
11099;BME280;12223;42.650;23.364;2024-02-26T02:15:14;94273.75;;;7.49;78.42
11099;BME280;12223;42.650;23.364;2024-02-26T02:17:40;94276.69;;;7.24;78.74
11099;BME280;12223;42.650;23.364;2024-02-26T02:20:25;94287.09;;;7.18;79.13
11099;BME280;12223;42.650;23.364;2024-02-26T02:22:52;94285.53;;;7.17;78.86
11099;BME280;12223;42.650;23.364;2024-02-26T02:25:17;94293.59;;;7.37;78.02
11099;BME280;12223;42.650;23.364;2024-02-26T02:27:43;94289.94;;;7.33;79.08
11099;BME280;12223;42.650;23.364;2024-02-26T02:30:09;94275.31;;;7.50;78.00
11099;BME280;12223;42.650;23.364;2024-02-26T02:32:37;94276.19;;;7.56;78.50
11099;BME280;12223;42.650;23.364;2024-02-26T02:35:05;94281.84;;;7.58;77.62
11099;BME280;12223;42.650;23.364;2024-02-26T02:37:30;94296.19;;;7.54;77.96
11099;BME280;12223;42.650;23.364;2024-02-26T02:39:56;94294.47;;;7.43;78.58
11099;BME280;12223;42.650;23.364;2024-02-26T02:42:23;94297.16;;;7.36;79.36
11099;BME280;12223;42.650;23.364;2024-02-26T02:44:49;94288.53;;;7.42;79.33
11099;BME280;12223;42.650;23.364;2024-02-26T02:47:15;94285.06;;;7.03;79.37
11099;BME280;12223;42.650;23.364;2024-02-26T02:49:40;94282.44;;;6.87;80.46
11099;BME280;12223;42.650;23.364;2024-02-26T02:52:06;94288.78;;;6.84;81.52
11099;BME280;12223;42.650;23.364;2024-02-26T02:54:31;94296.47;;;6.96;81.66
11099;BME280;12223;42.650;23.364;2024-02-26T02:56:56;94291.25;;;7.19;80.66
11099;BME280;12223;42.650;23.364;2024-02-26T02:59:23;94290.50;;;7.35;79.11
11099;BME280;12223;42.650;23.364;2024-02-26T03:01:48;94302.00;;;7.33;78.73
11099;BME280;12223;42.650;23.364;2024-02-26T03:04:14;94298.28;;;7.40;78.60
11099;BME280;12223;42.650;23.364;2024-02-26T03:06:40;94297.41;;;7.35;79.00
11099;BME280;12223;42.650;23.364;2024-02-26T03:09:05;94306.75;;;7.24;79.72
11099;BME280;12223;42.650;23.364;2024-02-26T03:11:31;94310.00;;;7.19;79.99
11099;BME280;12223;42.650;23.364;2024-02-26T03:14:01;94307.09;;;7.16;79.50
11099;BME280;12223;42.650;23.364;2024-02-26T03:16:27;94298.72;;;6.92;81.56
11099;BME280;12223;42.650;23.364;2024-02-26T03:18:53;94288.13;;;6.89;81.56
11099;BME280;12223;42.650;23.364;2024-02-26T03:21:18;94298.59;;;6.99;81.88
11099;BME280;12223;42.650;23.364;2024-02-26T03:23:43;94291.97;;;7.03;81.68
11099;BME280;12223;42.650;23.364;2024-02-26T03:26:09;94289.38;;;7.14;81.61
11099;BME280;12223;42.650;23.364;2024-02-26T03:28:40;94276.06;;;7.34;80.15
11099;BME280;12223;42.650;23.364;2024-02-26T03:31:05;94271.63;;;7.46;79.39
11099;BME280;12223;42.650;23.364;2024-02-26T03:33:31;94281.06;;;7.57;79.29
11099;BME280;12223;42.650;23.364;2024-02-26T03:35:56;94281.06;;;7.57;79.36
11099;BME280;12223;42.650;23.364;2024-02-26T03:38:22;94277.50;;;7.58;78.89
11099;BME280;12223;42.650;23.364;2024-02-26T03:40:47;94283.00;;;7.34;80.01
11099;BME280;12223;42.650;23.364;2024-02-26T03:43:13;94278.84;;;7.16;80.41
11099;BME280;12223;42.650;23.364;2024-02-26T03:45:40;94278.75;;;7.11;80.92
11099;BME280;12223;42.650;23.364;2024-02-26T03:48:07;94273.28;;;7.36;80.01
11099;BME280;12223;42.650;23.364;2024-02-26T03:50:33;94267.81;;;7.49;80.06
11099;BME280;12223;42.650;23.364;2024-02-26T03:52:59;94267.03;;;7.48;79.98
11099;BME280;12223;42.650;23.364;2024-02-26T03:55:25;94269.63;;;7.48;79.98
11099;BME280;12223;42.650;23.364;2024-02-26T03:57:53;94275.16;;;7.40;79.72
11099;BME280;12223;42.650;23.364;2024-02-26T04:00:19;94275.88;;;7.07;82.17
11099;BME280;12223;42.650;23.364;2024-02-26T04:02:46;94281.03;;;7.24;81.80
11099;BME280;12223;42.650;23.364;2024-02-26T04:05:13;94267.94;;;7.25;80.98
11099;BME280;12223;42.650;23.364;2024-02-26T04:07:40;94266.06;;;7.21;81.47
11099;BME280;12223;42.650;23.364;2024-02-26T04:10:10;94272.34;;;7.25;80.29
11099;BME280;12223;42.650;23.364;2024-02-26T04:12:35;94256.16;;;6.96;80.95
11099;BME280;12223;42.650;23.364;2024-02-26T04:15:01;94264.50;;;7.03;81.56
11099;BME280;12223;42.650;23.364;2024-02-26T04:17:26;94258.38;;;7.21;80.63
11099;BME280;12223;42.650;23.364;2024-02-26T04:19:51;94256.91;;;7.25;80.95
11099;BME280;12223;42.650;23.364;2024-02-26T04:22:17;94259.91;;;7.05;79.84
11099;BME280;12223;42.650;23.364;2024-02-26T04:24:43;94257.94;;;6.96;81.76
11099;BME280;12223;42.650;23.364;2024-02-26T04:27:08;94251.50;;;7.10;80.89
11099;BME280;12223;42.650;23.364;2024-02-26T04:29:34;94247.31;;;7.20;80.01
11099;BME280;12223;42.650;23.364;2024-02-26T04:31:59;94256.41;;;7.11;80.70
11099;BME280;12223;42.650;23.364;2024-02-26T04:34:25;94247.78;;;6.89;80.79
11099;BME280;12223;42.650;23.364;2024-02-26T04:36:50;94255.28;;;6.91;81.65
11099;BME280;12223;42.650;23.364;2024-02-26T04:39:16;94260.06;;;6.70;82.16
11099;BME280;12223;42.650;23.364;2024-02-26T04:41:42;94264.50;;;7.03;81.80
11099;BME280;12223;42.650;23.364;2024-02-26T04:44:07;94260.63;;;7.17;80.88
11099;BME280;12223;42.650;23.364;2024-02-26T04:46:32;94261.28;;;7.24;79.99
11099;BME280;12223;42.650;23.364;2024-02-26T04:48:58;94251.38;;;7.33;79.09
11099;BME280;12223;42.650;23.364;2024-02-26T04:51:25;94255.38;;;7.41;78.78
11099;BME280;12223;42.650;23.364;2024-02-26T04:53:50;94254.59;;;7.40;78.11
11099;BME280;12223;42.650;23.364;2024-02-26T04:56:17;94263.09;;;7.41;77.69
11099;BME280;12223;42.650;23.364;2024-02-26T04:58:42;94258.16;;;7.39;78.74
11099;BME280;12223;42.650;23.364;2024-02-26T05:01:07;94264.41;;;7.43;77.84
11099;BME280;12223;42.650;23.364;2024-02-26T05:03:35;94272.59;;;7.40;78.00
11099;BME280;12223;42.650;23.364;2024-02-26T05:06:00;94275.59;;;7.37;78.39
11099;BME280;12223;42.650;23.364;2024-02-26T05:08:26;94275.59;;;7.37;78.74
11099;BME280;12223;42.650;23.364;2024-02-26T05:10:51;94274.75;;;7.32;79.80
11099;BME280;12223;42.650;23.364;2024-02-26T05:13:17;94282.69;;;7.30;79.64
11099;BME280;12223;42.650;23.364;2024-02-26T05:15:43;94281.28;;;7.22;79.97
11099;BME280;12223;42.650;23.364;2024-02-26T05:18:09;94294.69;;;7.24;80.82
11099;BME280;12223;42.650;23.364;2024-02-26T05:20:34;94292.59;;;7.38;80.10
11099;BME280;12223;42.650;23.364;2024-02-26T05:23:01;94296.06;;;7.32;80.42
11099;BME280;12223;42.650;23.364;2024-02-26T05:25:27;94299.50;;;7.38;79.53
11099;BME280;12223;42.650;23.364;2024-02-26T05:27:52;94300.22;;;7.33;80.46
11099;BME280;12223;42.650;23.364;2024-02-26T05:30:17;94303.16;;;7.25;79.83
11099;BME280;12223;42.650;23.364;2024-02-26T05:32:43;94308.13;;;7.15;81.38
11099;BME280;12223;42.650;23.364;2024-02-26T05:35:08;94312.97;;;7.28;80.52
11099;BME280;12223;42.650;23.364;2024-02-26T05:37:34;94316.72;;;7.37;80.55
11099;BME280;12223;42.650;23.364;2024-02-26T05:39:59;94320.94;;;7.43;79.96
11099;BME280;12223;42.650;23.364;2024-02-26T05:42:25;94327.50;;;7.51;79.53
11099;BME280;12223;42.650;23.364;2024-02-26T05:44:50;94327.03;;;7.54;79.47
11099;BME280;12223;42.650;23.364;2024-02-26T05:47:16;94322.75;;;7.59;78.30
11099;BME280;12223;42.650;23.364;2024-02-26T05:49:42;94322.59;;;7.49;79.49
11099;BME280;12223;42.650;23.364;2024-02-26T05:52:09;94322.81;;;7.48;80.58
11099;BME280;12223;42.650;23.364;2024-02-26T05:54:34;94323.13;;;7.51;79.49
11099;BME280;12223;42.650;23.364;2024-02-26T05:57:00;94333.25;;;7.58;79.74
11099;BME280;12223;42.650;23.364;2024-02-26T05:59:26;94327.34;;;7.57;79.76
11099;BME280;12223;42.650;23.364;2024-02-26T06:01:52;94322.38;;;7.67;78.80
11099;BME280;12223;42.650;23.364;2024-02-26T06:04:17;94333.91;;;7.98;77.46
11099;BME280;12223;42.650;23.364;2024-02-26T06:06:44;94335.63;;;7.93;77.21
11099;BME280;12223;42.650;23.364;2024-02-26T06:09:10;94324.69;;;7.52;79.52
11099;BME280;12223;42.650;23.364;2024-02-26T06:11:36;94339.19;;;7.58;79.26
11099;BME280;12223;42.650;23.364;2024-02-26T06:14:02;94333.25;;;7.58;79.21
11099;BME280;12223;42.650;23.364;2024-02-26T06:16:27;94347.16;;;7.74;78.68
11099;BME280;12223;42.650;23.364;2024-02-26T06:18:53;94351.44;;;7.85;78.17
11099;BME280;12223;42.650;23.364;2024-02-26T06:21:18;94337.97;;;8.11;77.43
11099;BME280;12223;42.650;23.364;2024-02-26T06:23:43;94343.66;;;8.13;76.97
11099;BME280;12223;42.650;23.364;2024-02-26T06:26:09;94350.81;;;8.11;77.43
11099;BME280;12223;42.650;23.364;2024-02-26T06:28:35;94343.75;;;8.18;77.11
11099;BME280;12223;42.650;23.364;2024-02-26T06:31:01;94343.47;;;8.20;76.77
11099;BME280;12223;42.650;23.364;2024-02-26T06:33:27;94345.69;;;8.44;75.89
11099;BME280;12223;42.650;23.364;2024-02-26T06:35:52;94348.91;;;8.57;75.11
11099;BME280;12223;42.650;23.364;2024-02-26T06:38:17;94344.59;;;8.62;75.24
11099;BME280;12223;42.650;23.364;2024-02-26T06:40:44;94345.38;;;8.63;74.95
11099;BME280;12223;42.650;23.364;2024-02-26T06:43:10;94338.16;;;8.60;74.34
11099;BME280;12223;42.650;23.364;2024-02-26T06:45:35;94345.78;;;8.33;75.76
11099;BME280;12223;42.650;23.364;2024-02-26T06:48:00;94347.34;;;8.56;75.31
11099;BME280;12223;42.650;23.364;2024-02-26T06:50:26;94341.69;;;8.53;74.00
11099;BME280;12223;42.650;23.364;2024-02-26T06:52:51;94351.03;;;8.60;73.83
11099;BME280;12223;42.650;23.364;2024-02-26T06:55:17;94351.56;;;8.62;74.37
11099;BME280;12223;42.650;23.364;2024-02-26T06:57:42;94341.47;;;8.60;73.91
11099;BME280;12223;42.650;23.364;2024-02-26T07:00:08;94339.00;;;8.65;73.74
11099;BME280;12223;42.650;23.364;2024-02-26T07:02:37;94344.38;;;8.64;73.66
11099;BME280;12223;42.650;23.364;2024-02-26T07:05:02;94346.47;;;8.67;73.60
11099;BME280;12223;42.650;23.364;2024-02-26T07:07:28;94348.38;;;8.76;72.44
11099;BME280;12223;42.650;23.364;2024-02-26T07:09:54;94359.00;;;8.80;72.60
11099;BME280;12223;42.650;23.364;2024-02-26T07:12:20;94354.44;;;8.87;73.75
11099;BME280;12223;42.650;23.364;2024-02-26T07:14:46;94355.28;;;8.92;73.13
11099;BME280;12223;42.650;23.364;2024-02-26T07:17:12;94364.88;;;8.97;72.89
11099;BME280;12223;42.650;23.364;2024-02-26T07:19:37;94357.47;;;9.01;72.21
11099;BME280;12223;42.650;23.364;2024-02-26T07:22:03;94361.34;;;9.03;72.08
11099;BME280;12223;42.650;23.364;2024-02-26T07:24:28;94366.31;;;9.10;72.42
11099;BME280;12223;42.650;23.364;2024-02-26T07:26:54;94357.84;;;9.14;71.24
11099;BME280;12223;42.650;23.364;2024-02-26T07:29:22;94358.16;;;9.18;71.84
11099;BME280;12223;42.650;23.364;2024-02-26T07:31:50;94352.25;;;9.22;70.57
11099;BME280;12223;42.650;23.364;2024-02-26T07:34:16;94358.25;;;9.28;71.76
11099;BME280;12223;42.650;23.364;2024-02-26T07:36:41;94359.88;;;9.34;70.30
11099;BME280;12223;42.650;23.364;2024-02-26T07:39:06;94357.88;;;9.41;70.97
11099;BME280;12223;42.650;23.364;2024-02-26T07:41:32;94362.53;;;9.44;71.51
11099;BME280;12223;42.650;23.364;2024-02-26T07:44:00;94362.97;;;9.58;70.72
11099;BME280;12223;42.650;23.364;2024-02-26T07:46:26;94371.31;;;9.70;71.14
11099;BME280;12223;42.650;23.364;2024-02-26T07:48:54;94370.91;;;9.83;69.05
11099;BME280;12223;42.650;23.364;2024-02-26T07:51:19;94369.41;;;9.87;70.28
11099;BME280;12223;42.650;23.364;2024-02-26T07:53:44;94363.06;;;10.00;70.99
11099;BME280;12223;42.650;23.364;2024-02-26T07:56:10;94363.38;;;10.08;70.17
11099;BME280;12223;42.650;23.364;2024-02-26T07:58:35;94352.66;;;10.21;69.15
11099;BME280;12223;42.650;23.364;2024-02-26T08:01:01;94359.47;;;10.38;67.15
11099;BME280;12223;42.650;23.364;2024-02-26T08:03:28;94355.69;;;10.50;67.29
11099;BME280;12223;42.650;23.364;2024-02-26T08:05:53;94349.88;;;10.75;66.98
11099;BME280;12223;42.650;23.364;2024-02-26T08:08:19;94350.16;;;10.84;66.42
11099;BME280;12223;42.650;23.364;2024-02-26T08:10:44;94339.59;;;10.85;64.79
11099;BME280;12223;42.650;23.364;2024-02-26T08:13:10;94344.25;;;10.93;64.91
11099;BME280;12223;42.650;23.364;2024-02-26T08:15:36;94349.25;;;11.10;65.48
11099;BME280;12223;42.650;23.364;2024-02-26T08:18:04;94344.34;;;11.14;65.38
11099;BME280;12223;42.650;23.364;2024-02-26T08:20:31;94346.22;;;11.38;64.45
11099;BME280;12223;42.650;23.364;2024-02-26T08:22:57;94351.19;;;11.55;62.35
11099;BME280;12223;42.650;23.364;2024-02-26T08:25:23;94350.94;;;11.72;62.21
11099;BME280;12223;42.650;23.364;2024-02-26T08:27:50;94354.34;;;11.92;60.56
11099;BME280;12223;42.650;23.364;2024-02-26T08:30:16;94345.53;;;11.93;60.86
11099;BME280;12223;42.650;23.364;2024-02-26T08:32:44;94352.53;;;12.03;60.60
11099;BME280;12223;42.650;23.364;2024-02-26T08:35:10;94346.84;;;12.11;59.50
11099;BME280;12223;42.650;23.364;2024-02-26T08:37:36;94346.56;;;11.87;60.74
11099;BME280;12223;42.650;23.364;2024-02-26T08:40:01;94351.75;;;11.98;60.25
11099;BME280;12223;42.650;23.364;2024-02-26T08:42:29;94348.66;;;12.01;59.59
11099;BME280;12223;42.650;23.364;2024-02-26T08:44:56;94351.25;;;12.06;62.55
11099;BME280;12223;42.650;23.364;2024-02-26T08:47:21;94353.84;;;12.21;60.47
11099;BME280;12223;42.650;23.364;2024-02-26T08:49:46;94347.63;;;12.07;61.62
11099;BME280;12223;42.650;23.364;2024-02-26T08:52:12;94342.47;;;11.97;60.47
11099;BME280;12223;42.650;23.364;2024-02-26T08:54:37;94344.78;;;11.98;61.19
11099;BME280;12223;42.650;23.364;2024-02-26T08:57:03;94350.72;;;12.14;61.61
11099;BME280;12223;42.650;23.364;2024-02-26T08:59:29;94356.69;;;12.24;61.26
11099;BME280;12223;42.650;23.364;2024-02-26T09:01:54;94353.81;;;12.41;61.07
11099;BME280;12223;42.650;23.364;2024-02-26T09:04:20;94340.81;;;12.56;59.31
11099;BME280;12223;42.650;23.364;2024-02-26T09:06:45;94348.38;;;12.43;60.03
11099;BME280;12223;42.650;23.364;2024-02-26T09:09:10;94348.91;;;12.34;59.37
11099;BME280;12223;42.650;23.364;2024-02-26T09:11:38;94342.16;;;12.33;60.68
11099;BME280;12223;42.650;23.364;2024-02-26T09:14:03;94350.41;;;12.56;60.98
11099;BME280;12223;42.650;23.364;2024-02-26T09:16:30;94344.72;;;12.64;59.67
11099;BME280;12223;42.650;23.364;2024-02-26T09:18:57;94327.09;;;12.51;59.57
11099;BME280;12223;42.650;23.364;2024-02-26T09:21:22;94328.16;;;12.45;58.43
11099;BME280;12223;42.650;23.364;2024-02-26T09:23:50;94336.19;;;12.53;58.96
11099;BME280;12223;42.650;23.364;2024-02-26T09:26:15;94329.22;;;12.28;59.59
11099;BME280;12223;42.650;23.364;2024-02-26T09:28:41;94331.78;;;12.44;59.94
11099;BME280;12223;42.650;23.364;2024-02-26T09:31:07;94329.94;;;12.59;58.87
11099;BME280;12223;42.650;23.364;2024-02-26T09:33:33;94330.66;;;12.75;57.40
11099;BME280;12223;42.650;23.364;2024-02-26T09:35:58;94331.84;;;13.08;58.19
11099;BME280;12223;42.650;23.364;2024-02-26T09:38:24;94339.53;;;13.33;56.53
11099;BME280;12223;42.650;23.364;2024-02-26T09:40:49;94341.56;;;13.46;56.88
11099;BME280;12223;42.650;23.364;2024-02-26T09:43:17;94314.97;;;13.59;56.32
11099;BME280;12223;42.650;23.364;2024-02-26T09:45:44;94325.91;;;13.56;56.35
11099;BME280;12223;42.650;23.364;2024-02-26T09:48:10;94314.09;;;13.35;55.38
11099;BME280;12223;42.650;23.364;2024-02-26T09:50:40;94333.91;;;13.65;55.21
11099;BME280;12223;42.650;23.364;2024-02-26T09:53:09;94328.53;;;13.51;55.85
11099;BME280;12223;42.650;23.364;2024-02-26T09:55:36;94325.59;;;13.19;56.07
11099;BME280;12223;42.650;23.364;2024-02-26T09:58:04;94332.56;;;13.29;56.67
11099;BME280;12223;42.650;23.364;2024-02-26T10:00:36;94327.97;;;13.05;56.22
11099;BME280;12223;42.650;23.364;2024-02-26T10:03:04;94318.97;;;12.83;57.01
11099;BME280;12223;42.650;23.364;2024-02-26T10:05:32;94318.41;;;12.96;57.53
11099;BME280;12223;42.650;23.364;2024-02-26T10:08:00;94316.25;;;13.18;56.01
11099;BME280;12223;42.650;23.364;2024-02-26T10:10:28;94311.47;;;13.40;55.04
11099;BME280;12223;42.650;23.364;2024-02-26T10:12:54;94311.38;;;13.55;54.51
11099;BME280;12223;42.650;23.364;2024-02-26T10:15:20;94312.34;;;13.65;54.55
11099;BME280;12223;42.650;23.364;2024-02-26T10:17:45;94307.53;;;13.48;54.44
11099;BME280;12223;42.650;23.364;2024-02-26T10:20:18;94303.66;;;13.45;54.78
11099;BME280;12223;42.650;23.364;2024-02-26T10:22:47;94303.69;;;13.40;54.75
11099;BME280;12223;42.650;23.364;2024-02-26T10:25:12;94296.63;;;13.51;54.73
11099;BME280;12223;42.650;23.364;2024-02-26T10:27:40;94292.19;;;13.56;54.68
11099;BME280;12223;42.650;23.364;2024-02-26T10:30:22;94291.03;;;13.73;53.25
11099;BME280;12223;42.650;23.364;2024-02-26T10:32:50;94283.50;;;13.71;53.71
11099;BME280;12223;42.650;23.364;2024-02-26T10:35:16;94283.72;;;13.75;53.38
11099;BME280;12223;42.650;23.364;2024-02-26T10:37:43;94281.19;;;13.65;53.65
11099;BME280;12223;42.650;23.364;2024-02-26T10:40:15;94279.59;;;13.69;52.45
11099;BME280;12223;42.650;23.364;2024-02-26T10:42:42;94279.59;;;13.69;53.29
11099;BME280;12223;42.650;23.364;2024-02-26T10:45:09;94272.34;;;13.71;53.41
11099;BME280;12223;42.650;23.364;2024-02-26T10:47:38;94268.66;;;13.77;52.48
11099;BME280;12223;42.650;23.364;2024-02-26T10:50:06;94263.59;;;13.90;52.10
11099;BME280;12223;42.650;23.364;2024-02-26T10:52:33;94275.72;;;14.00;52.82
11099;BME280;12223;42.650;23.364;2024-02-26T10:55:03;94269.00;;;13.94;51.54
11099;BME280;12223;42.650;23.364;2024-02-26T10:57:36;94267.41;;;14.03;51.92
11099;BME280;12223;42.650;23.364;2024-02-26T11:00:05;94261.38;;;14.08;51.53
11099;BME280;12223;42.650;23.364;2024-02-26T11:02:35;94270.13;;;14.17;51.75
11099;BME280;12223;42.650;23.364;2024-02-26T11:05:05;94270.47;;;14.34;51.17
11099;BME280;12223;42.650;23.364;2024-02-26T11:07:31;94271.31;;;14.29;51.50
11099;BME280;12223;42.650;23.364;2024-02-26T11:09:59;94262.94;;;14.37;50.85
11099;BME280;12223;42.650;23.364;2024-02-26T11:12:25;94266.59;;;14.31;50.25
11099;BME280;12223;42.650;23.364;2024-02-26T11:14:50;94267.47;;;14.22;50.23
11099;BME280;12223;42.650;23.364;2024-02-26T11:17:21;94264.59;;;14.23;50.63
11099;BME280;12223;42.650;23.364;2024-02-26T11:19:49;94260.00;;;14.15;51.49
11099;BME280;12223;42.650;23.364;2024-02-26T11:22:15;94262.91;;;14.61;49.15
11099;BME280;12223;42.650;23.364;2024-02-26T11:24:40;94271.91;;;14.50;50.02
11099;BME280;12223;42.650;23.364;2024-02-26T11:27:09;94262.84;;;14.66;49.84
11099;BME280;12223;42.650;23.364;2024-02-26T11:29:43;94267.53;;;14.69;50.61
11099;BME280;12223;42.650;23.364;2024-02-26T11:32:09;94259.97;;;14.68;49.20
11099;BME280;12223;42.650;23.364;2024-02-26T11:34:35;94256.66;;;14.86;49.50
11099;BME280;12223;42.650;23.364;2024-02-26T11:37:11;94257.53;;;15.00;49.26
11099;BME280;12223;42.650;23.364;2024-02-26T11:39:36;94260.44;;;14.94;49.46
11099;BME280;12223;42.650;23.364;2024-02-26T11:42:10;94244.00;;;14.98;48.43
11099;BME280;12223;42.650;23.364;2024-02-26T11:44:38;94263.00;;;14.99;47.40
11099;BME280;12223;42.650;23.364;2024-02-26T11:47:14;94257.31;;;14.73;48.72
11099;BME280;12223;42.650;23.364;2024-02-26T11:49:43;94250.47;;;14.58;47.83
11099;BME280;12223;42.650;23.364;2024-02-26T11:52:09;94245.13;;;14.50;48.69
11099;BME280;12223;42.650;23.364;2024-02-26T11:57:22;94250.13;;;14.41;48.75
11099;BME280;12223;42.650;23.364;2024-02-26T11:59:48;94249.88;;;14.42;48.73
11099;BME280;12223;42.650;23.364;2024-02-26T12:07:39;94252.47;;;14.42;49.13
11099;BME280;12223;42.650;23.364;2024-02-26T12:12:42;94254.19;;;14.52;47.46
11099;BME280;12223;42.650;23.364;2024-02-26T12:15:08;94249.22;;;14.56;47.84
11099;BME280;12223;42.650;23.364;2024-02-26T12:17:34;94254.13;;;14.81;48.30
11099;BME280;12223;42.650;23.364;2024-02-26T12:20:13;94253.16;;;14.96;48.72
11099;BME280;12223;42.650;23.364;2024-02-26T12:22:39;94252.50;;;14.85;48.01
11099;BME280;12223;42.650;23.364;2024-02-26T12:25:08;94249.78;;;14.95;48.13
11099;BME280;12223;42.650;23.364;2024-02-26T12:27:34;94256.03;;;14.94;47.27
11099;BME280;12223;42.650;23.364;2024-02-26T12:30:00;94252.75;;;15.07;46.66
11099;BME280;12223;42.650;23.364;2024-02-26T12:32:26;94250.09;;;15.12;46.84
11099;BME280;12223;42.650;23.364;2024-02-26T12:34:52;94257.78;;;14.99;47.30
11099;BME280;12223;42.650;23.364;2024-02-26T12:37:17;94252.81;;;15.02;46.86
11099;BME280;12223;42.650;23.364;2024-02-26T12:39:43;94253.94;;;15.15;46.23
11099;BME280;12223;42.650;23.364;2024-02-26T12:42:09;94254.91;;;15.19;45.81
11099;BME280;12223;42.650;23.364;2024-02-26T12:44:35;94253.59;;;15.21;46.35
11099;BME280;12223;42.650;23.364;2024-02-26T12:47:04;94249.78;;;15.32;45.34
11099;BME280;12223;42.650;23.364;2024-02-26T12:49:30;94252.13;;;15.53;45.09
11099;BME280;12223;42.650;23.364;2024-02-26T12:51:55;94241.84;;;15.61;43.34
11099;BME280;12223;42.650;23.364;2024-02-26T12:54:30;94239.63;;;15.50;45.08
11099;BME280;12223;42.650;23.364;2024-02-26T12:57:00;94243.28;;;15.54;44.32
11099;BME280;12223;42.650;23.364;2024-02-26T12:59:27;94236.97;;;15.55;44.28
11099;BME280;12223;42.650;23.364;2024-02-26T13:01:53;94238.84;;;15.54;44.27